Portada
METAR-TAF:

METAR-TAF

Aeropuertos :

Sharurah, Arabia Saudita

latitud: 17-28N, longitud: 047-07E, altitud: 720 m

Observación

El informe se hizo hace 1 hora y 10 minutos, a las 02:00 UTC
Viento 5 kt del este-noreste
Temperatura 16°C
Humedad 21%
Presión 1016 hPa
Visibilidad 10 km o más
sin nubes por debajo de 1500 m y sin presencia de cumulonimbus.

METAR: OESH 280200Z 07005KT CAVOK 16/M06 Q1016 NOSIG

Hora: 06:10 (03:10 UTC)

Pronóstico

El informe se hizo hace 4 horas y 10 minutos, a las 23:00 UTC
Pronóstico válido del 28 a las 00 UTC al 01 a las 06 UTC
Viento 3 kt con dirección variable
Visibilidad 10 km o más
sin nubes por debajo de 1500 m y sin presencia de cumulonimbus.
Evolucionando progresivamente
del 28 a las 06 UTC al 28 a las 08 UTC
Viento 10 kt del sureste

TAF: OESH 272300Z 2800/0106 VRB03KT CAVOK BECMG 2806/2808 14010KT

Observaciones y pronósticos meteorológicos de más de 4000 aeropuertos (mensajes METAR y TAF).

Los puntos amarillos y rojos representan las estaciones disponibles.

Ponga el ratón en el punto deseado para ver el nombre de la estación.

Haga clic para ver las observaciones y los pronósticos meteorológicos.

Para cambiar el mapa : haga clic en los botones verdes con una cruz de color negro para hacer un zoom, en el botón verde con un guión para alejar o en las flechas verdes para mapas adyacentes.


METAR-TAF: